createdAt,value
2022-07-29T00:01:42.758Z,42.41
2022-07-29T00:04:11.191Z,42.32
2022-07-29T00:06:39.809Z,42.38
2022-07-29T00:09:09.093Z,42.72
2022-07-29T00:11:37.471Z,42.49
2022-07-29T00:14:07.419Z,42.75
2022-07-29T00:16:35.955Z,42.44
2022-07-29T00:19:04.790Z,42.50
2022-07-29T00:21:33.209Z,42.24
2022-07-29T00:24:01.578Z,42.46
2022-07-29T00:26:32.668Z,42.63
2022-07-29T00:29:32.401Z,42.80
2022-07-29T00:31:51.505Z,42.69
2022-07-29T00:34:37.406Z,42.49
2022-07-29T00:37:05.815Z,42.42
2022-07-29T00:39:36.378Z,42.46
2022-07-29T00:42:06.006Z,42.97
2022-07-29T00:44:39.859Z,42.87
2022-07-29T00:47:10.627Z,42.65
2022-07-29T00:49:41.159Z,42.40
2022-07-29T00:52:12.058Z,42.62
2022-07-29T00:54:44.820Z,42.81
2022-07-29T00:57:14.265Z,42.67
2022-07-29T00:59:43.728Z,42.57
2022-07-29T01:02:13.530Z,42.83
2022-07-29T01:04:42.680Z,43.05
2022-07-29T01:07:11.087Z,42.79
2022-07-29T01:09:45.800Z,43.24
2022-07-29T01:12:18.900Z,43.00
2022-07-29T01:14:48.242Z,43.00
2022-07-29T01:17:24.215Z,43.32
2022-07-29T01:20:05.564Z,43.53
2022-07-29T01:23:13.988Z,43.46
2022-07-29T01:26:20.464Z,43.45
2022-07-29T01:29:09.329Z,43.51
2022-07-29T01:31:58.642Z,43.72
2022-07-29T01:34:36.423Z,43.87
2022-07-29T01:37:14.910Z,43.55
2022-07-29T01:39:45.911Z,43.53
2022-07-29T01:42:23.021Z,43.68
2022-07-29T01:44:59.683Z,43.93
2022-07-29T01:47:37.287Z,44.07
2022-07-29T01:50:13.021Z,44.09
2022-07-29T01:52:47.464Z,43.93
2022-07-29T01:55:17.944Z,44.30
2022-07-29T01:57:49.679Z,44.32
2022-07-29T02:00:20.408Z,44.37
2022-07-29T02:02:50.254Z,44.72
2022-07-29T02:05:21.540Z,44.21
2022-07-29T02:07:51.820Z,44.36
2022-07-29T02:10:25.811Z,44.38
2022-07-29T02:12:57.120Z,44.59
2022-07-29T02:15:29.861Z,44.70
2022-07-29T02:18:04.202Z,44.73
2022-07-29T02:20:33.125Z,44.90
2022-07-29T02:23:02.965Z,44.93
2022-07-29T02:25:36.974Z,45.11
2022-07-29T02:28:07.874Z,44.91
2022-07-29T02:30:42.443Z,45.39
2022-07-29T02:33:12.783Z,45.36
2022-07-29T02:35:42.583Z,45.40
2022-07-29T02:38:32.150Z,45.44
2022-07-29T02:41:02.674Z,45.30
2022-07-29T02:43:32.903Z,45.61
2022-07-29T02:46:05.371Z,45.54
2022-07-29T02:48:48.759Z,45.43
2022-07-29T02:51:43.737Z,45.53
2022-07-29T02:54:20.701Z,45.49
2022-07-29T02:56:50.318Z,45.55
2022-07-29T02:59:24.357Z,45.64
2022-07-29T03:01:56.722Z,45.78
2022-07-29T03:04:27.614Z,45.89
2022-07-29T03:06:57.579Z,45.75
2022-07-29T03:09:26.915Z,46.06
2022-07-29T03:11:56.275Z,45.94
2022-07-29T03:14:25.223Z,45.81
2022-07-29T03:16:55.659Z,45.67
2022-07-29T03:19:24.376Z,45.76
2022-07-29T03:21:52.689Z,46.10
2022-07-29T03:24:32.659Z,46.06
2022-07-29T03:27:01.660Z,46.27
2022-07-29T03:29:33.865Z,46.35
2022-07-29T03:32:07.900Z,46.53
2022-07-29T03:34:38.670Z,46.75
2022-07-29T03:37:07.951Z,46.83
2022-07-29T03:39:41.761Z,46.79
2022-07-29T03:42:13.454Z,46.89
2022-07-29T03:44:45.472Z,47.07
2022-07-29T03:47:17.135Z,47.08
2022-07-29T03:49:49.398Z,47.24
2022-07-29T03:52:17.884Z,47.16
2022-07-29T03:54:46.382Z,47.56
2022-07-29T03:57:15.839Z,47.90
2022-07-29T03:59:45.024Z,47.89
2022-07-29T04:02:20.106Z,48.07
2022-07-29T04:04:50.250Z,48.08
2022-07-29T04:07:18.566Z,47.98
2022-07-29T04:09:46.933Z,47.92
2022-07-29T04:12:15.295Z,48.05
2022-07-29T04:14:43.752Z,48.29
2022-07-29T04:17:12.174Z,48.57
2022-07-29T04:19:41.879Z,48.56
2022-07-29T04:22:10.223Z,48.99
2022-07-29T04:24:38.556Z,48.66
2022-07-29T04:27:06.900Z,49.19
2022-07-29T04:29:35.178Z,48.53
2022-07-29T04:32:03.543Z,48.81
2022-07-29T04:34:31.868Z,49.01
2022-07-29T04:37:01.513Z,49.22
2022-07-29T04:39:30.521Z,49.11
2022-07-29T04:41:59.216Z,49.15
2022-07-29T04:44:29.175Z,49.11
2022-07-29T04:46:58.873Z,49.03
2022-07-29T04:49:27.554Z,48.80
2022-07-29T04:51:56.087Z,49.04
2022-07-29T04:54:25.781Z,49.35
2022-07-29T04:56:54.753Z,49.24
2022-07-29T04:59:23.534Z,49.32
2022-07-29T05:01:51.933Z,49.44
2022-07-29T05:04:20.921Z,49.07
2022-07-29T05:06:49.491Z,49.32
2022-07-29T05:09:17.870Z,49.71
2022-07-29T05:11:47.529Z,49.80
2022-07-29T05:14:16.201Z,49.33
2022-07-29T05:16:44.803Z,49.46
2022-07-29T05:19:14.671Z,49.58
2022-07-29T05:21:43.505Z,49.14
2022-07-29T05:24:12.711Z,49.21
2022-07-29T05:26:41.731Z,49.35
2022-07-29T05:29:44.153Z,49.03
2022-07-29T05:32:00.522Z,48.94
2022-07-29T05:34:29.033Z,49.03
2022-07-29T05:36:57.623Z,48.92
2022-07-29T05:39:47.118Z,48.74
2022-07-29T05:42:14.591Z,48.69
2022-07-29T05:44:44.322Z,48.86
2022-07-29T05:47:12.769Z,49.11
2022-07-29T05:49:41.184Z,49.05
2022-07-29T05:52:09.930Z,49.06
2022-07-29T05:54:38.509Z,48.88
2022-07-29T05:57:07.254Z,48.52
2022-07-29T05:59:38.487Z,48.92
2022-07-29T06:02:08.259Z,48.46
2022-07-29T06:04:37.077Z,48.42
2022-07-29T06:07:06.293Z,48.53
2022-07-29T06:09:36.339Z,48.38
2022-07-29T06:12:06.566Z,48.25
2022-07-29T06:14:34.903Z,47.79
2022-07-29T06:17:03.326Z,47.61
2022-07-29T06:19:33.072Z,47.58
2022-07-29T06:22:01.354Z,47.34
2022-07-29T06:24:29.761Z,47.20
2022-07-29T06:26:58.163Z,46.60
2022-07-29T06:29:26.734Z,46.25
2022-07-29T06:31:55.043Z,46.26
2022-07-29T06:34:23.390Z,46.19
2022-07-29T06:36:53.797Z,46.21
2022-07-29T06:39:23.199Z,46.22
2022-07-29T06:41:52.488Z,46.43
2022-07-29T06:44:21.261Z,46.19
2022-07-29T06:46:50.994Z,46.17
2022-07-29T06:49:19.528Z,46.09
2022-07-29T06:51:47.928Z,46.25
2022-07-29T06:54:17.981Z,45.30
2022-07-29T06:56:46.922Z,45.37
2022-07-29T06:59:15.558Z,45.16
2022-07-29T07:01:45.625Z,44.32
2022-07-29T07:04:15.619Z,44.68
2022-07-29T07:06:45.430Z,44.50
2022-07-29T07:09:13.736Z,44.57
2022-07-29T07:11:43.374Z,44.64
2022-07-29T07:14:11.709Z,44.76
2022-07-29T07:16:40.122Z,45.05
2022-07-29T07:19:08.529Z,44.50
2022-07-29T07:21:36.949Z,44.09
2022-07-29T07:24:06.153Z,43.92
2022-07-29T07:26:34.452Z,43.60
2022-07-29T07:29:04.130Z,43.40
2022-07-29T07:31:32.614Z,43.88
2022-07-29T07:34:00.983Z,43.67
2022-07-29T07:36:29.309Z,43.69
2022-07-29T07:38:57.705Z,43.15
2022-07-29T07:41:26.058Z,42.60
2022-07-29T07:44:01.155Z,42.77
2022-07-29T07:46:30.921Z,41.92
2022-07-29T07:48:59.280Z,42.04
2022-07-29T07:51:27.961Z,41.47
2022-07-29T07:53:56.343Z,40.58
2022-07-29T07:56:26.077Z,40.91
2022-07-29T07:58:54.461Z,41.20
2022-07-29T08:01:24.003Z,40.90
2022-07-29T08:03:53.768Z,40.47
2022-07-29T08:06:22.145Z,41.03
2022-07-29T08:08:51.900Z,40.15
2022-07-29T08:11:20.648Z,40.46
2022-07-29T08:13:49.010Z,40.58
2022-07-29T08:16:17.408Z,40.26
2022-07-29T08:18:47.373Z,39.78
2022-07-29T08:21:17.643Z,39.10
2022-07-29T08:23:57.609Z,38.58
2022-07-29T08:26:28.314Z,38.75
2022-07-29T08:28:56.660Z,38.62
2022-07-29T08:31:25.133Z,38.32
2022-07-29T08:33:53.605Z,38.08
2022-07-29T08:36:23.336Z,37.77
2022-07-29T08:38:51.966Z,37.62
2022-07-29T08:41:20.881Z,37.07
2022-07-29T08:43:49.556Z,37.00
2022-07-29T08:46:19.072Z,37.11
2022-07-29T08:48:48.199Z,36.79
2022-07-29T08:51:18.851Z,36.06
2022-07-29T08:53:50.530Z,35.86
2022-07-29T08:56:21.096Z,36.88
2022-07-29T08:58:52.238Z,36.21
2022-07-29T09:01:35.078Z,36.07
2022-07-29T09:04:08.683Z,35.55
2022-07-29T09:06:50.270Z,34.49
2022-07-29T09:09:20.082Z,34.16
2022-07-29T09:11:48.481Z,34.17
2022-07-29T09:14:16.854Z,33.99
2022-07-29T09:16:55.130Z,34.12
2022-07-29T09:19:26.617Z,33.80
2022-07-29T09:22:03.371Z,32.49
2022-07-29T09:24:48.291Z,31.80
2022-07-29T09:27:27.393Z,31.09
2022-07-29T09:30:00.795Z,30.93
2022-07-29T09:32:30.547Z,30.67
2022-07-29T09:35:20.322Z,30.73
2022-07-29T09:37:49.653Z,30.79
2022-07-29T09:40:21.973Z,29.96
2022-07-29T09:42:50.892Z,29.83
2022-07-29T09:45:31.362Z,29.63
2022-07-29T09:48:03.902Z,29.85
2022-07-29T09:50:40.939Z,29.23
2022-07-29T09:53:11.110Z,29.13
2022-07-29T09:55:51.874Z,28.62
2022-07-29T09:58:22.279Z,28.95
2022-07-29T10:00:52.670Z,28.44
2022-07-29T10:03:22.242Z,28.79
2022-07-29T10:06:10.567Z,28.52
2022-07-29T10:08:39.460Z,28.14
2022-07-29T10:11:17.810Z,26.86
2022-07-29T10:13:49.327Z,27.07
2022-07-29T10:16:19.056Z,27.36
2022-07-29T10:18:48.322Z,27.88
2022-07-29T10:21:34.488Z,28.40
2022-07-29T10:24:06.846Z,27.24
2022-07-29T10:26:45.696Z,27.40
2022-07-29T10:29:14.345Z,26.54
2022-07-29T10:31:54.634Z,26.12
2022-07-29T10:34:46.861Z,26.46
2022-07-29T10:37:24.978Z,26.45
2022-07-29T10:40:23.086Z,25.90
2022-07-29T10:42:55.853Z,24.88
2022-07-29T10:45:24.924Z,25.30
2022-07-29T10:48:08.092Z,24.84
2022-07-29T10:50:55.311Z,24.50
2022-07-29T10:53:24.390Z,24.39
2022-07-29T10:55:55.039Z,24.99
2022-07-29T10:58:26.295Z,24.80
2022-07-29T11:00:57.576Z,25.59
2022-07-29T11:03:50.883Z,25.51
2022-07-29T11:06:26.776Z,24.29
2022-07-29T11:09:30.175Z,24.62
2022-07-29T11:12:04.180Z,24.49
2022-07-29T11:15:00.123Z,24.84
2022-07-29T11:17:37.586Z,25.33
2022-07-29T11:20:41.491Z,26.06
2022-07-29T11:23:33.904Z,25.41
2022-07-29T11:26:24.785Z,24.56
2022-07-29T11:29:00.160Z,24.62
2022-07-29T11:31:39.289Z,24.16
2022-07-29T11:34:29.651Z,24.13
2022-07-29T11:37:28.299Z,24.93
2022-07-29T11:40:18.907Z,25.14
2022-07-29T11:42:52.243Z,24.87
2022-07-29T11:48:29.608Z,25.13
2022-07-29T11:51:01.567Z,25.89
2022-07-29T11:53:32.803Z,25.63
2022-07-29T11:56:03.424Z,24.99
2022-07-29T11:58:32.884Z,24.54
2022-07-29T12:01:04.645Z,25.29
2022-07-29T12:03:36.961Z,24.77
2022-07-29T12:06:14.861Z,24.62
2022-07-29T12:08:45.049Z,24.05
2022-07-29T12:11:23.477Z,25.17
2022-07-29T12:13:52.879Z,25.23
2022-07-29T12:16:25.518Z,25.07
2022-07-29T12:19:03.937Z,24.72
2022-07-29T12:21:53.681Z,24.79
2022-07-29T12:24:26.825Z,24.92
2022-07-29T12:26:57.966Z,25.67
2022-07-29T12:29:34.728Z,25.76
2022-07-29T12:32:14.373Z,25.39
2022-07-29T12:34:44.927Z,25.56
2022-07-29T12:37:13.555Z,25.67
2022-07-29T12:39:42.290Z,24.71
2022-07-29T12:42:15.010Z,26.87
2022-07-29T12:44:49.143Z,27.15
2022-07-29T12:47:19.063Z,26.79
2022-07-29T12:49:49.688Z,26.55
2022-07-29T12:52:32.825Z,25.89
2022-07-29T12:55:01.849Z,25.49
2022-07-29T12:57:30.657Z,25.39
2022-07-29T13:00:11.694Z,24.80
2022-07-29T13:02:41.910Z,26.35
2022-07-29T13:05:13.658Z,25.16
2022-07-29T13:07:55.627Z,24.14
2022-07-29T13:10:26.901Z,24.63
2022-07-29T13:13:09.100Z,25.02
2022-07-29T13:15:38.983Z,25.35
2022-07-29T13:18:28.733Z,25.33
2022-07-29T13:20:59.264Z,25.46
2022-07-29T13:23:27.671Z,24.88
2022-07-29T13:25:56.049Z,24.92
2022-07-29T13:28:24.445Z,24.93
2022-07-29T13:30:52.769Z,24.48
2022-07-29T13:33:21.108Z,24.69
2022-07-29T13:35:49.562Z,25.26
2022-07-29T13:38:19.373Z,26.83
2022-07-29T13:40:47.767Z,26.50
2022-07-29T13:43:16.132Z,25.69
2022-07-29T13:45:44.536Z,25.46
2022-07-29T13:48:12.914Z,25.63
2022-07-29T13:50:41.226Z,24.78
2022-07-29T13:53:09.657Z,24.96
2022-07-29T13:55:47.529Z,24.50
2022-07-29T13:58:16.827Z,24.01
2022-07-29T14:00:45.208Z,24.50
2022-07-29T14:03:13.512Z,24.27
2022-07-29T14:05:41.799Z,23.77
2022-07-29T14:08:10.127Z,23.80
2022-07-29T14:10:38.495Z,24.35
2022-07-29T14:13:24.499Z,23.35
2022-07-29T14:15:54.209Z,23.70
2022-07-29T14:18:22.595Z,24.55
2022-07-29T14:20:52.019Z,24.71
2022-07-29T14:23:20.635Z,24.38
2022-07-29T14:25:49.359Z,25.22
2022-07-29T14:28:19.551Z,24.22
2022-07-29T14:30:47.991Z,24.62
2022-07-29T14:33:16.315Z,24.86
2022-07-29T14:35:44.831Z,24.00
2022-07-29T14:38:13.335Z,24.58
2022-07-29T14:40:41.691Z,24.14
2022-07-29T14:43:10.048Z,24.10
2022-07-29T14:45:39.872Z,24.37
2022-07-29T14:48:08.411Z,24.41
2022-07-29T14:50:36.726Z,24.61
2022-07-29T14:53:05.651Z,25.85
2022-07-29T14:55:34.100Z,26.53
2022-07-29T14:58:09.783Z,25.93
2022-07-29T15:00:40.854Z,27.02
2022-07-29T15:03:11.172Z,25.34
2022-07-29T15:05:40.143Z,25.13
2022-07-29T15:08:09.714Z,26.24
2022-07-29T15:10:38.211Z,26.99
2022-07-29T15:13:06.605Z,26.58
2022-07-29T15:15:35.050Z,27.24
2022-07-29T15:18:05.054Z,26.62
2022-07-29T15:20:33.430Z,26.24
2022-07-29T15:23:01.727Z,27.31
2022-07-29T15:25:30.079Z,25.77
2022-07-29T15:28:01.736Z,26.15
2022-07-29T15:30:33.415Z,26.37
2022-07-29T15:33:05.102Z,27.40
2022-07-29T15:35:33.548Z,26.53
2022-07-29T15:38:09.763Z,25.91
2022-07-29T15:40:41.224Z,27.13
2022-07-29T15:43:09.813Z,26.53
2022-07-29T15:45:40.374Z,27.28
2022-07-29T15:48:14.672Z,28.04
2022-07-29T15:50:46.881Z,27.32
2022-07-29T15:53:15.760Z,27.34
2022-07-29T15:55:44.515Z,27.56
2022-07-29T15:58:12.983Z,27.06
2022-07-29T16:00:41.454Z,26.97
2022-07-29T16:03:11.279Z,27.00
2022-07-29T16:05:39.626Z,26.56
2022-07-29T16:08:08.188Z,26.76
2022-07-29T16:10:36.611Z,26.67
2022-07-29T16:13:05.255Z,27.63
2022-07-29T16:15:33.898Z,26.79
2022-07-29T16:18:02.238Z,26.48
2022-07-29T16:20:32.845Z,27.60
2022-07-29T16:23:01.699Z,27.43
2022-07-29T16:25:57.378Z,27.50
2022-07-29T16:28:18.640Z,27.78
2022-07-29T16:30:47.123Z,28.59
2022-07-29T16:33:15.564Z,29.19
2022-07-29T16:35:45.310Z,29.17
2022-07-29T16:38:13.613Z,29.95
2022-07-29T16:40:42.028Z,29.77
2022-07-29T16:43:10.722Z,28.01
2022-07-29T16:45:45.308Z,28.55
2022-07-29T16:48:14.782Z,28.02
2022-07-29T16:50:44.679Z,28.40
2022-07-29T16:53:13.045Z,28.42
2022-07-29T16:55:42.408Z,28.49
2022-07-29T16:58:11.369Z,29.09
2022-07-29T17:00:40.481Z,29.02
2022-07-29T17:03:08.809Z,29.02
2022-07-29T17:05:52.803Z,28.88
2022-07-29T17:08:24.081Z,29.00
2022-07-29T17:10:52.487Z,30.20
2022-07-29T17:13:21.231Z,29.36
2022-07-29T17:15:49.629Z,29.19
2022-07-29T17:18:17.970Z,29.57
2022-07-29T17:20:46.591Z,30.05
2022-07-29T17:23:14.919Z,30.38
2022-07-29T17:25:44.742Z,30.66
2022-07-29T17:28:13.068Z,30.17
2022-07-29T17:30:41.434Z,30.70
2022-07-29T17:33:09.786Z,29.99
2022-07-29T17:35:55.518Z,30.34
2022-07-29T17:38:23.895Z,30.17
2022-07-29T17:40:53.562Z,30.00
2022-07-29T17:43:21.921Z,30.93
2022-07-29T17:45:50.887Z,30.97
2022-07-29T17:48:19.851Z,30.64
2022-07-29T17:50:49.614Z,30.71
2022-07-29T17:53:18.427Z,30.42
2022-07-29T17:55:48.663Z,31.36
2022-07-29T17:58:18.731Z,31.42
2022-07-29T18:00:47.124Z,31.26
2022-07-29T18:03:15.696Z,31.59
2022-07-29T18:05:44.400Z,32.11
2022-07-29T18:08:13.257Z,32.18
2022-07-29T18:10:42.424Z,32.41
2022-07-29T18:13:12.606Z,32.51
2022-07-29T18:15:42.813Z,32.36
2022-07-29T18:18:11.207Z,32.55
2022-07-29T18:20:39.826Z,32.77
2022-07-29T18:23:08.337Z,32.69
2022-07-29T18:25:36.793Z,32.76
2022-07-29T18:28:06.206Z,32.88
2022-07-29T18:30:36.804Z,32.83
2022-07-29T18:33:24.284Z,32.84
2022-07-29T18:36:11.236Z,32.39
2022-07-29T18:38:40.932Z,32.10
2022-07-29T18:41:09.367Z,32.48
2022-07-29T18:43:37.744Z,32.16
2022-07-29T18:46:06.786Z,31.50
2022-07-29T18:48:36.893Z,31.08
2022-07-29T18:51:09.336Z,30.82
2022-07-29T18:53:38.528Z,31.83
2022-07-29T18:56:06.967Z,31.25
2022-07-29T18:58:37.038Z,31.26
2022-07-29T19:01:05.401Z,30.85
2022-07-29T19:03:33.877Z,30.73
2022-07-29T19:06:03.583Z,30.98
2022-07-29T19:08:33.279Z,31.25
2022-07-29T19:11:01.651Z,31.24
2022-07-29T19:13:30.958Z,31.55
2022-07-29T19:15:59.403Z,31.78
2022-07-29T19:18:27.858Z,31.48
2022-07-29T19:20:56.189Z,30.81
2022-07-29T19:23:25.873Z,30.56
2022-07-29T19:25:54.291Z,30.60
2022-07-29T19:28:22.807Z,30.51
2022-07-29T19:30:51.693Z,30.52
2022-07-29T19:33:20.971Z,30.74
2022-07-29T19:35:54.605Z,31.02
2022-07-29T19:38:23.428Z,31.19
2022-07-29T19:40:53.549Z,32.37
2022-07-29T19:43:50.633Z,32.36
2022-07-29T19:46:10.336Z,33.60
2022-07-29T19:48:38.732Z,33.27
2022-07-29T19:51:07.126Z,33.59
2022-07-29T19:53:35.518Z,33.60
2022-07-29T19:56:06.157Z,34.44
2022-07-29T19:58:37.424Z,35.02
2022-07-29T20:01:10.438Z,35.37
2022-07-29T20:03:40.035Z,34.88
2022-07-29T20:06:08.808Z,34.17
2022-07-29T20:08:37.223Z,34.23
2022-07-29T20:11:07.682Z,35.43
2022-07-29T20:13:36.012Z,35.62
2022-07-29T20:16:08.283Z,35.50
2022-07-29T20:18:36.789Z,36.14
2022-07-29T20:21:05.257Z,36.72
2022-07-29T20:23:33.763Z,36.41
2022-07-29T20:26:03.455Z,35.91
2022-07-29T20:28:34.865Z,36.21
2022-07-29T20:31:03.274Z,36.60
2022-07-29T20:33:31.650Z,36.22
2022-07-29T20:35:59.982Z,36.59
2022-07-29T20:38:28.494Z,37.20
2022-07-29T20:40:58.709Z,37.51
2022-07-29T20:43:27.618Z,37.65
2022-07-29T20:45:57.473Z,37.44
2022-07-29T20:48:25.905Z,37.70
2022-07-29T20:50:55.001Z,37.82
2022-07-29T20:53:23.523Z,38.02
2022-07-29T20:55:52.427Z,38.24
2022-07-29T20:58:21.007Z,38.37
2022-07-29T21:00:51.873Z,38.15
2022-07-29T21:03:21.648Z,38.88
2022-07-29T21:05:50.250Z,39.30
2022-07-29T21:08:18.574Z,39.15
2022-07-29T21:10:47.087Z,39.66
2022-07-29T21:13:15.497Z,39.32
2022-07-29T21:15:46.463Z,39.93
2022-07-29T21:18:27.180Z,40.09
2022-07-29T21:20:57.094Z,40.45
2022-07-29T21:23:25.634Z,41.06
2022-07-29T21:25:54.810Z,40.49
2022-07-29T21:28:30.559Z,40.79
2022-07-29T21:31:01.779Z,40.65
2022-07-29T21:33:33.208Z,41.13
2022-07-29T21:36:26.650Z,41.38
2022-07-29T21:38:52.677Z,41.12
2022-07-29T21:41:21.906Z,41.52
2022-07-29T21:43:50.253Z,42.40
2022-07-29T21:46:20.645Z,42.27
2022-07-29T21:48:52.945Z,42.34
2022-07-29T21:51:22.734Z,42.22
2022-07-29T21:53:53.023Z,42.91
2022-07-29T21:56:22.630Z,43.06
2022-07-29T21:58:57.031Z,43.38
2022-07-29T22:01:25.743Z,42.74
2022-07-29T22:03:54.323Z,43.54
2022-07-29T22:06:24.677Z,43.41
2022-07-29T22:08:53.018Z,43.63
2022-07-29T22:11:21.417Z,44.17
2022-07-29T22:13:49.775Z,44.04
2022-07-29T22:16:18.634Z,44.52
2022-07-29T22:18:48.263Z,44.57
2022-07-29T22:21:16.866Z,44.79
2022-07-29T22:23:46.764Z,45.03
2022-07-29T22:26:15.106Z,45.27
2022-07-29T22:28:43.535Z,45.33
2022-07-29T22:31:12.239Z,45.66
2022-07-29T22:33:40.801Z,45.84
2022-07-29T22:36:09.625Z,46.07
2022-07-29T22:38:38.228Z,46.06
2022-07-29T22:41:07.979Z,46.32
2022-07-29T22:43:36.661Z,46.23
2022-07-29T22:46:05.038Z,46.63
2022-07-29T22:48:33.371Z,46.94
2022-07-29T22:51:01.739Z,47.20
2022-07-29T22:53:30.220Z,47.37
2022-07-29T22:55:58.577Z,47.56
2022-07-29T22:58:28.285Z,47.45
2022-07-29T23:00:56.738Z,47.88
2022-07-29T23:03:25.204Z,48.05
2022-07-29T23:05:53.604Z,48.26
2022-07-29T23:08:22.350Z,48.25
2022-07-29T23:10:50.730Z,48.32
2022-07-29T23:13:19.094Z,48.41
2022-07-29T23:15:48.777Z,48.54
2022-07-29T23:18:17.327Z,48.46
2022-07-29T23:20:46.079Z,48.67
2022-07-29T23:23:14.462Z,48.63
2022-07-29T23:25:42.860Z,48.86
2022-07-29T23:28:13.132Z,48.93
2022-07-29T23:30:42.258Z,49.26
2022-07-29T23:33:12.026Z,48.99
2022-07-29T23:35:40.488Z,49.07
2022-07-29T23:38:08.832Z,49.20
2022-07-29T23:40:37.217Z,49.34
2022-07-29T23:43:08.568Z,49.35
2022-07-29T23:45:44.581Z,49.81
2022-07-29T23:48:15.350Z,49.71
2022-07-29T23:50:43.947Z,49.89
2022-07-29T23:53:12.742Z,50.15
2022-07-29T23:55:41.054Z,50.21
2022-07-29T23:58:09.429Z,49.88
